Time;durP1;ratioP1;P1;durP2;ratioP2;P2;SDS_P1;SDS_P2;PMS_P1;PMS_P2;Temp;Humidity;BMP_temperature;BMP_pressure;BME280_temperature;BME280_humidity;BME280_pressure;Samples;Min_cycle;Max_cycle;Signal;HPM_P1;HPM_P2
2021/01/08 00:00:14;;;;;;;27.00;14.38;;;2.40;73.00;;;;;;5082942;28;20074;-65
2021/01/08 00:02:39;;;;;;;28.15;15.48;;;2.30;73.00;;;;;;5082828;28;20043;-65
2021/01/08 00:05:05;;;;;;;29.52;15.43;;;2.40;73.00;;;;;;5082818;28;20056;-65
2021/01/08 00:07:37;;;;;;;27.08;14.50;;;2.30;73.30;;;;;;5083826;28;20051;-65
2021/01/08 00:10:04;;;;;;;27.02;15.18;;;2.30;73.50;;;;;;5066677;28;20224;-65
2021/01/08 00:12:33;;;;;;;25.65;14.52;;;2.20;73.20;;;;;;5067695;28;20029;-65
2021/01/08 00:14:59;;;;;;;27.23;15.18;;;2.30;73.30;;;;;;5082811;28;20045;-65
2021/01/08 00:17:27;;;;;;;26.65;15.23;;;2.20;73.30;;;;;;5083296;28;20043;-65
2021/01/08 00:19:53;;;;;;;27.10;15.07;;;2.20;73.30;;;;;;5082327;28;20036;-64
2021/01/08 00:22:19;;;;;;;26.00;14.45;;;2.00;73.10;;;;;;5083386;28;20084;-65
2021/01/08 00:24:44;;;;;;;28.67;15.27;;;2.10;73.30;;;;;;5050760;28;20025;-65
2021/01/08 00:27:10;;;;;;;29.50;15.38;;;2.10;73.40;;;;;;5082548;28;20142;-65
2021/01/08 00:29:35;;;;;;;28.63;15.20;;;2.10;73.30;;;;;;5082465;28;20032;-65
2021/01/08 00:32:01;;;;;;;28.55;15.23;;;2.10;73.50;;;;;;5082316;28;20090;-65
2021/01/08 00:34:27;;;;;;;29.58;15.32;;;2.10;73.60;;;;;;5083143;28;20323;-65
2021/01/08 00:36:53;;;;;;;28.45;15.68;;;2.00;73.50;;;;;;5067101;28;20028;-65
2021/01/08 00:39:19;;;;;;;27.60;15.57;;;2.10;73.50;;;;;;5065711;28;20096;-65
2021/01/08 00:41:45;;;;;;;27.60;14.80;;;2.10;73.80;;;;;;5081792;28;20039;-65
2021/01/08 00:44:11;;;;;;;29.13;15.45;;;2.10;73.50;;;;;;5065027;28;20044;-65
2021/01/08 00:46:38;;;;;;;29.33;15.45;;;2.00;73.60;;;;;;5065078;28;20239;-64
2021/01/08 00:49:04;;;;;;;30.55;15.13;;;2.10;73.60;;;;;;5048019;28;20020;-65
2021/01/08 00:51:30;;;;;;;26.98;15.05;;;2.00;73.80;;;;;;5084060;28;20024;-64
2021/01/08 00:53:56;;;;;;;29.15;15.52;;;2.10;73.80;;;;;;5082884;28;20099;-65
2021/01/08 00:56:21;;;;;;;30.60;15.20;;;2.10;73.80;;;;;;5083105;28;20041;-64
2021/01/08 00:58:47;;;;;;;25.63;14.90;;;2.10;73.80;;;;;;5065031;28;20122;-65
2021/01/08 01:01:14;;;;;;;29.85;15.57;;;2.10;73.40;;;;;;5064961;28;20248;-65
2021/01/08 01:03:39;;;;;;;28.40;15.10;;;2.10;73.20;;;;;;5083614;28;20029;-64
2021/01/08 01:06:05;;;;;;;29.13;15.05;;;2.20;73.70;;;;;;5065369;28;20216;-65
2021/01/08 01:08:30;;;;;;;26.52;14.63;;;2.20;73.20;;;;;;5082709;28;20096;-64
2021/01/08 01:10:56;;;;;;;26.77;14.32;;;2.20;73.40;;;;;;5064953;28;20039;-65
2021/01/08 01:13:22;;;;;;;26.83;14.30;;;2.20;73.20;;;;;;5081563;28;20045;-64
2021/01/08 01:15:47;;;;;;;27.15;15.35;;;2.10;73.30;;;;;;5084236;28;20079;-65
2021/01/08 01:18:13;;;;;;;25.23;14.90;;;2.20;73.20;;;;;;5082065;28;20096;-65
2021/01/08 01:20:38;;;;;;;27.35;15.60;;;2.20;73.30;;;;;;5082394;28;20033;-65
2021/01/08 01:23:04;;;;;;;28.08;14.63;;;2.20;73.00;;;;;;5081666;28;20044;-64
2021/01/08 01:25:30;;;;;;;27.33;15.55;;;2.20;73.20;;;;;;5082504;28;20048;-64
2021/01/08 01:27:55;;;;;;;28.95;16.00;;;2.20;73.40;;;;;;5083561;28;20087;-65
2021/01/08 01:30:21;;;;;;;28.65;14.63;;;2.20;73.10;;;;;;5064648;28;20025;-65
2021/01/08 01:32:47;;;;;;;29.60;16.30;;;2.10;73.40;;;;;;5082351;28;20033;-65
2021/01/08 01:35:12;;;;;;;27.13;15.85;;;2.00;73.50;;;;;;5064698;28;20033;-65
2021/01/08 01:37:38;;;;;;;29.20;16.77;;;2.00;73.60;;;;;;5081327;28;20037;-65
2021/01/08 01:40:04;;;;;;;26.67;14.77;;;2.00;73.40;;;;;;5081650;28;20036;-65
2021/01/08 01:42:30;;;;;;;29.17;15.85;;;2.00;73.60;;;;;;5082661;28;20079;-65
2021/01/08 01:44:55;;;;;;;27.40;15.38;;;1.90;73.70;;;;;;5081672;28;20371;-65
2021/01/08 01:47:21;;;;;;;28.05;15.10;;;2.00;73.60;;;;;;5082420;28;20223;-65
2021/01/08 01:49:47;;;;;;;29.60;15.65;;;1.90;73.70;;;;;;5081180;28;20051;-65
2021/01/08 01:52:13;;;;;;;28.00;15.63;;;2.00;73.70;;;;;;5081077;28;20271;-65
2021/01/08 01:54:38;;;;;;;29.35;15.40;;;1.90;73.50;;;;;;5083064;28;20031;-64
2021/01/08 01:57:04;;;;;;;29.33;15.63;;;1.90;73.50;;;;;;5081305;28;20033;-65
2021/01/08 01:59:29;;;;;;;28.55;15.10;;;2.00;73.60;;;;;;5082813;28;20063;-65
2021/01/08 02:01:55;;;;;;;28.42;14.93;;;1.90;73.60;;;;;;5086311;28;20340;-65
2021/01/08 02:04:20;;;;;;;28.67;15.63;;;2.00;73.80;;;;;;5051755;28;20035;-65
2021/01/08 02:06:46;;;;;;;27.40;15.73;;;2.00;73.70;;;;;;5070259;28;20025;-65
2021/01/08 02:09:13;;;;;;;28.83;15.85;;;2.00;73.50;;;;;;5085103;28;20039;-65
2021/01/08 02:11:40;;;;;;;25.98;14.63;;;2.10;73.10;;;;;;5085829;28;20045;-65
2021/01/08 02:14:20;;;;;;;28.00;14.65;;;2.10;73.10;;;;;;5068303;28;20029;-65
2021/01/08 02:16:45;;;;;;;27.15;14.98;;;2.10;73.20;;;;;;5068287;28;20032;-65
2021/01/08 02:19:18;;;;;;;24.00;14.02;;;2.10;73.00;;;;;;5084750;28;20072;-65
2021/01/08 02:21:51;;;;;;;25.05;15.35;;;2.10;73.00;;;;;;5070531;28;20037;-65
2021/01/08 02:24:25;;;;;;;24.77;14.55;;;2.10;73.30;;;;;;5086284;28;20037;-64
2021/01/08 02:26:51;;;;;;;26.52;14.48;;;2.00;73.20;;;;;;5086165;28;20037;-65
2021/01/08 02:29:16;;;;;;;24.63;14.48;;;2.10;73.20;;;;;;5084640;28;20055;-65
2021/01/08 02:31:42;;;;;;;27.30;14.05;;;2.00;73.00;;;;;;5084767;28;20024;-65
2021/01/08 02:34:07;;;;;;;26.95;14.57;;;2.00;73.10;;;;;;5067924;28;20032;-65
2021/01/08 02:36:36;;;;;;;26.20;15.60;;;2.00;73.10;;;;;;5053119;28;20024;-65
2021/01/08 02:39:01;;;;;;;27.15;14.25;;;2.00;72.90;;;;;;5085686;28;20043;-64
2021/01/08 02:41:27;;;;;;;25.75;15.05;;;2.00;72.90;;;;;;5068073;28;20336;-65
2021/01/08 02:43:53;;;;;;;26.58;14.60;;;2.10;73.10;;;;;;5084359;28;20070;-65
2021/01/08 02:46:18;;;;;;;23.98;14.23;;;2.00;73.30;;;;;;5084150;28;20262;-64
2021/01/08 02:48:44;;;;;;;25.88;14.48;;;2.00;73.00;;;;;;5086931;28;20032;-64
2021/01/08 02:51:10;;;;;;;24.65;14.20;;;2.00;72.40;;;;;;5085815;28;20032;-65
2021/01/08 02:53:36;;;;;;;25.60;14.75;;;2.00;72.70;;;;;;5084149;28;20324;-64
2021/01/08 02:56:04;;;;;;;24.02;14.52;;;2.00;72.90;;;;;;5067658;28;20037;-65
2021/01/08 02:58:29;;;;;;;24.30;13.52;;;2.00;72.80;;;;;;5067675;28;20060;-64
2021/01/08 03:00:56;;;;;;;23.75;13.38;;;2.00;72.60;;;;;;5069292;28;20082;-64
2021/01/08 03:03:22;;;;;;;24.52;13.95;;;2.00;72.60;;;;;;5067906;28;20051;-64
2021/01/08 03:05:48;;;;;;;23.58;14.23;;;2.00;72.30;;;;;;5084035;28;20043;-64
2021/01/08 03:08:13;;;;;;;24.23;13.60;;;2.10;72.30;;;;;;5067166;28;20096;-65
2021/01/08 03:10:39;;;;;;;24.27;13.73;;;2.10;72.20;;;;;;5083343;28;20064;-65
2021/01/08 03:13:05;;;;;;;25.83;12.85;;;2.20;72.40;;;;;;5084183;28;20065;-65
2021/01/08 03:15:30;;;;;;;25.20;13.80;;;2.20;71.90;;;;;;5069088;28;20051;-65
2021/01/08 03:17:56;;;;;;;22.27;13.45;;;2.10;71.80;;;;;;5067282;28;20211;-64
2021/01/08 03:20:22;;;;;;;23.50;13.80;;;2.10;71.70;;;;;;5083453;28;20108;-65
2021/01/08 03:22:47;;;;;;;21.35;12.95;;;2.20;71.40;;;;;;5067126;28;20043;-65
2021/01/08 03:25:13;;;;;;;23.67;13.98;;;2.10;71.80;;;;;;5084544;28;20024;-64
2021/01/08 03:27:39;;;;;;;23.17;13.55;;;2.00;71.60;;;;;;5085102;28;20040;-65
2021/01/08 03:30:05;;;;;;;22.95;13.60;;;2.10;71.80;;;;;;5083555;28;20177;-65
2021/01/08 03:32:31;;;;;;;26.08;13.77;;;2.10;71.90;;;;;;5083726;28;20036;-65
2021/01/08 03:34:57;;;;;;;24.33;13.60;;;2.20;71.70;;;;;;5066738;28;20088;-65
2021/01/08 03:37:22;;;;;;;21.38;12.38;;;2.20;71.60;;;;;;5084247;28;20033;-67
2021/01/08 03:39:48;;;;;;;23.20;13.30;;;2.10;71.50;;;;;;5084959;28;20080;-65
2021/01/08 03:42:13;;;;;;;23.50;13.48;;;2.10;71.50;;;;;;5083663;28;20078;-67
2021/01/08 03:44:39;;;;;;;23.52;13.05;;;2.20;71.40;;;;;;5066446;28;20040;-66
2021/01/08 03:47:04;;;;;;;22.63;12.52;;;2.20;71.60;;;;;;5083127;28;20033;-67
2021/01/08 03:49:30;;;;;;;23.17;12.93;;;2.20;71.40;;;;;;5083491;28;20025;-66
2021/01/08 03:51:55;;;;;;;22.08;13.38;;;2.10;71.20;;;;;;5084926;28;20027;-66
2021/01/08 03:54:21;;;;;;;23.15;13.27;;;2.10;71.40;;;;;;5083833;28;20036;-67
2021/01/08 03:56:47;;;;;;;22.67;13.13;;;2.20;71.70;;;;;;5066424;28;20029;-67
2021/01/08 03:59:12;;;;;;;24.92;13.98;;;2.20;71.20;;;;;;5066333;28;20251;-65
2021/01/08 04:01:38;;;;;;;22.90;13.23;;;2.20;71.10;;;;;;5083150;28;20192;-67
2021/01/08 04:04:03;;;;;;;20.75;13.10;;;2.20;71.00;;;;;;5082687;28;20037;-67
2021/01/08 04:06:29;;;;;;;21.85;13.63;;;2.20;71.20;;;;;;5084622;28;20028;-67
2021/01/08 04:08:57;;;;;;;22.73;13.18;;;2.20;71.30;;;;;;5084115;28;20220;-66
2021/01/08 04:11:22;;;;;;;22.98;13.13;;;2.30;71.60;;;;;;5082928;28;20050;-66
2021/01/08 04:13:48;;;;;;;24.00;13.63;;;2.30;71.40;;;;;;5082613;28;20056;-65
2021/01/08 04:16:14;;;;;;;24.45;14.02;;;2.20;71.30;;;;;;5082579;28;20239;-66
2021/01/08 04:18:39;;;;;;;24.27;13.57;;;2.20;70.80;;;;;;5084180;28;20072;-67
2021/01/08 04:21:05;;;;;;;22.38;12.70;;;2.20;70.90;;;;;;5083975;28;20339;-66
2021/01/08 04:23:30;;;;;;;22.08;13.55;;;2.20;70.60;;;;;;5081820;28;20358;-66
2021/01/08 04:25:56;;;;;;;22.35;13.07;;;2.20;71.20;;;;;;5082171;28;20224;-66
2021/01/08 04:28:21;;;;;;;21.23;11.95;;;2.10;70.50;;;;;;5065435;28;20032;-66
2021/01/08 04:30:47;;;;;;;22.10;12.75;;;2.20;70.60;;;;;;5084992;28;20117;-66
2021/01/08 04:33:12;;;;;;;21.70;12.77;;;2.20;70.80;;;;;;5082532;28;20059;-67
2021/01/08 04:35:38;;;;;;;24.33;13.90;;;2.20;71.00;;;;;;5083196;28;20081;-67
2021/01/08 04:38:04;;;;;;;23.55;13.05;;;2.20;71.40;;;;;;5083095;28;20039;-67
2021/01/08 04:40:29;;;;;;;23.48;13.80;;;2.20;71.00;;;;;;5082968;28;20092;-67
2021/01/08 04:42:55;;;;;;;22.85;13.30;;;2.20;70.70;;;;;;5083577;28;20048;-67
2021/01/08 04:45:20;;;;;;;24.25;13.52;;;2.20;70.90;;;;;;5082475;28;20032;-68
2021/01/08 04:47:46;;;;;;;23.40;13.50;;;2.10;71.20;;;;;;5081852;28;20076;-66
2021/01/08 04:50:12;;;;;;;22.15;13.05;;;2.20;71.10;;;;;;5065156;28;20040;-66
2021/01/08 04:52:38;;;;;;;24.88;12.98;;;2.20;71.20;;;;;;5048681;28;20232;-66
2021/01/08 04:55:04;;;;;;;23.17;13.82;;;2.20;70.80;;;;;;5065311;28;20300;-67
2021/01/08 04:57:30;;;;;;;24.35;13.73;;;2.10;70.80;;;;;;5084502;28;20032;-67
2021/01/08 04:59:56;;;;;;;23.38;12.88;;;2.10;71.20;;;;;;5048712;28;20100;-67
2021/01/08 05:02:22;;;;;;;23.92;13.13;;;2.20;71.00;;;;;;5065256;28;20047;-68
2021/01/08 05:04:47;;;;;;;21.88;13.07;;;2.20;71.00;;;;;;5064854;28;20254;-67
2021/01/08 05:07:13;;;;;;;22.55;13.57;;;2.20;71.00;;;;;;5081539;28;20063;-67
2021/01/08 05:09:38;;;;;;;23.65;12.93;;;2.20;71.10;;;;;;5084850;28;20036;-67
2021/01/08 05:12:04;;;;;;;23.25;13.20;;;2.20;71.10;;;;;;5065225;28;20056;-67
2021/01/08 05:14:30;;;;;;;22.70;12.75;;;2.20;71.50;;;;;;5081856;28;20040;-67
2021/01/08 05:16:56;;;;;;;25.27;13.75;;;2.20;71.10;;;;;;5064794;28;20343;-67
2021/01/08 05:19:23;;;;;;;21.40;12.65;;;2.20;71.20;;;;;;5082565;28;20055;-67
2021/01/08 05:21:50;;;;;;;24.50;13.75;;;2.30;71.20;;;;;;5083188;28;20138;-67
2021/01/08 05:24:16;;;;;;;22.52;12.77;;;2.20;70.30;;;;;;5065335;28;20036;-67
2021/01/08 05:26:41;;;;;;;24.30;13.18;;;2.20;70.60;;;;;;5064729;28;20324;-67
2021/01/08 05:29:07;;;;;;;22.70;12.43;;;2.40;70.50;;;;;;5081290;28;20074;-67
2021/01/08 05:31:33;;;;;;;20.30;12.35;;;2.30;70.60;;;;;;5082672;28;20086;-67
2021/01/08 05:33:59;;;;;;;21.20;12.52;;;2.40;71.30;;;;;;5064458;28;20028;-67
2021/01/08 05:36:25;;;;;;;22.45;12.25;;;2.30;71.50;;;;;;5066169;28;20063;-67
2021/01/08 05:38:53;;;;;;;22.05;12.45;;;2.40;71.10;;;;;;5064897;28;20127;-67
2021/01/08 05:41:19;;;;;;;21.35;12.73;;;2.40;70.40;;;;;;5048478;28;20092;-67
2021/01/08 05:43:46;;;;;;;21.85;13.20;;;2.40;69.80;;;;;;5064576;28;20045;-67
2021/01/08 05:46:16;;;;;;;22.70;12.68;;;2.30;70.20;;;;;;5080998;28;20029;-67
2021/01/08 05:48:50;;;;;;;23.60;13.05;;;2.30;70.40;;;;;;5067063;28;20327;-67
2021/01/08 05:51:16;;;;;;;22.98;13.80;;;2.30;69.80;;;;;;5065638;28;20029;-67
2021/01/08 05:53:46;;;;;;;24.20;13.50;;;2.30;70.10;;;;;;5082238;28;20036;-67
2021/01/08 05:56:20;;;;;;;23.75;13.23;;;2.40;70.10;;;;;;5081134;28;20100;-67
2021/01/08 05:58:46;;;;;;;23.60;13.70;;;2.40;70.20;;;;;;5081315;28;20032;-67
2021/01/08 06:01:11;;;;;;;23.55;13.00;;;2.30;70.20;;;;;;5064382;28;20031;-67
2021/01/08 06:03:37;;;;;;;23.40;12.85;;;2.30;70.50;;;;;;5066091;28;20032;-67
2021/01/08 06:06:03;;;;;;;24.77;13.13;;;2.30;70.50;;;;;;5081284;28;20323;-67
2021/01/08 06:08:32;;;;;;;30.08;13.02;;;2.30;70.50;;;;;;5081089;28;20045;-67
2021/01/08 06:11:00;;;;;;;25.38;12.90;;;2.40;71.10;;;;;;5064312;28;20044;-67
2021/01/08 06:13:34;;;;;;;22.75;13.32;;;2.40;69.90;;;;;;5064365;28;20041;-67
2021/01/08 06:16:01;;;;;;;21.55;12.85;;;2.40;70.50;;;;;;5064725;28;20063;-67
2021/01/08 06:18:26;;;;;;;22.60;13.18;;;2.40;70.30;;;;;;5032978;28;20096;-67
2021/01/08 06:20:53;;;;;;;21.58;12.73;;;2.40;70.60;;;;;;5064610;28;20374;-67
2021/01/08 06:23:42;;;;;;;23.77;13.23;;;2.40;70.10;;;;;;5080883;28;20269;-67
2021/01/08 06:26:15;;;;;;;22.35;12.65;;;2.40;69.90;;;;;;5080593;28;20033;-67
2021/01/08 06:28:49;;;;;;;25.80;12.85;;;2.30;70.50;;;;;;5047630;28;20116;-67
2021/01/08 06:31:21;;;;;;;23.35;13.95;;;2.30;70.90;;;;;;5080793;28;20360;-67
2021/01/08 06:33:52;;;;;;;23.83;13.32;;;2.20;70.40;;;;;;5083792;28;20036;-67
2021/01/08 06:36:19;;;;;;;24.63;13.20;;;2.20;70.50;;;;;;5064542;28;20108;-67
2021/01/08 06:39:06;;;;;;;22.70;12.70;;;2.10;70.80;;;;;;5080762;28;20335;-67
2021/01/08 06:41:32;;;;;;;21.40;12.02;;;2.30;70.60;;;;;;5080837;28;20100;-67
2021/01/08 06:44:04;;;;;;;20.77;11.48;;;2.20;70.60;;;;;;5063590;28;20045;-67
2021/01/08 06:46:34;;;;;;;22.27;12.15;;;2.10;71.30;;;;;;5065612;28;20076;-67
2021/01/08 06:49:04;;;;;;;18.70;10.70;;;2.20;71.50;;;;;;5084394;28;20038;-67
2021/01/08 06:51:40;;;;;;;18.25;10.32;;;2.20;71.70;;;;;;5069705;28;20028;-67
2021/01/08 06:54:09;;;;;;;18.75;10.88;;;2.10;71.50;;;;;;5068390;28;20040;-67
2021/01/08 06:56:39;;;;;;;17.17;9.93;;;2.10;71.30;;;;;;5068278;28;20217;-67
2021/01/08 06:59:09;;;;;;;17.02;9.43;;;2.20;71.90;;;;;;5084084;28;20255;-67
2021/01/08 07:01:58;;;;;;;17.13;10.00;;;2.20;71.90;;;;;;5083959;28;20032;-67
2021/01/08 07:04:28;;;;;;;17.80;9.95;;;2.20;71.60;;;;;;5070005;28;20032;-67
2021/01/08 07:06:54;;;;;;;16.67;9.50;;;2.20;71.80;;;;;;5069370;28;20032;-67
2021/01/08 07:09:19;;;;;;;18.58;9.70;;;2.30;71.80;;;;;;5083638;28;20078;-67
2021/01/08 07:11:51;;;;;;;17.13;9.57;;;2.30;71.60;;;;;;5083935;28;20082;-65
2021/01/08 07:14:22;;;;;;;17.42;9.10;;;2.30;71.40;;;;;;5068009;28;20060;-65
2021/01/08 07:16:49;;;;;;;14.37;8.73;;;2.30;71.90;;;;;;5083898;28;20074;-65
2021/01/08 07:19:17;;;;;;;16.30;9.30;;;2.20;71.00;;;;;;5083383;28;20278;-65
2021/01/08 07:21:50;;;;;;;16.08;9.05;;;2.20;71.80;;;;;;5086945;28;20028;-65
2021/01/08 07:24:17;;;;;;;15.75;9.05;;;2.20;71.70;;;;;;5083656;28;20044;-66
2021/01/08 07:26:42;;;;;;;15.27;9.00;;;2.20;71.50;;;;;;5067094;28;20040;-65
2021/01/08 07:29:08;;;;;;;18.17;9.15;;;2.10;71.30;;;;;;5083739;28;20055;-65
2021/01/08 07:31:35;;;;;;;16.85;9.27;;;2.20;71.90;;;;;;5066659;28;20058;-66
2021/01/08 07:34:03;;;;;;;16.55;9.85;;;2.20;71.60;;;;;;5066842;28;20048;-66
2021/01/08 07:36:29;;;;;;;17.85;9.73;;;2.20;71.40;;;;;;5084767;28;20331;-66
2021/01/08 07:38:55;;;;;;;17.50;10.00;;;2.30;71.20;;;;;;5083691;28;20037;-65
2021/01/08 07:41:30;;;;;;;17.42;10.43;;;2.30;71.40;;;;;;5083370;28;20032;-65
2021/01/08 07:43:56;;;;;;;17.27;10.40;;;2.30;71.10;;;;;;5082743;28;20041;-66
2021/01/08 07:46:32;;;;;;;20.25;10.95;;;2.20;71.90;;;;;;5082633;28;20039;-65
2021/01/08 07:48:58;;;;;;;19.42;10.85;;;2.20;70.90;;;;;;5082821;28;20056;-66
2021/01/08 07:51:44;;;;;;;18.92;11.07;;;2.30;71.10;;;;;;5067883;28;20038;-66
2021/01/08 07:54:10;;;;;;;22.38;11.48;;;2.40;71.30;;;;;;5068943;28;20219;-66
2021/01/08 07:56:35;;;;;;;19.13;10.98;;;2.40;71.40;;;;;;5083724;28;20039;-67
2021/01/08 07:59:06;;;;;;;21.63;11.85;;;2.40;70.60;;;;;;5083265;28;20040;-68
2021/01/08 08:01:33;;;;;;;22.10;12.18;;;2.40;70.30;;;;;;5066926;28;20045;-68
2021/01/08 08:04:03;;;;;;;21.95;12.68;;;2.40;70.50;;;;;;5065920;28;20255;-67
2021/01/08 08:06:31;;;;;;;21.15;12.15;;;2.40;70.50;;;;;;5084956;28;20081;-67
2021/01/08 08:09:01;;;;;;;22.30;12.43;;;2.50;70.10;;;;;;5066869;28;20149;-67
2021/01/08 08:11:27;;;;;;;22.42;12.18;;;2.60;69.90;;;;;;5049385;28;20350;-67
2021/01/08 08:13:54;;;;;;;21.00;11.95;;;2.50;69.70;;;;;;5065947;28;20036;-67
2021/01/08 08:16:39;;;;;;;27.85;13.07;;;2.60;69.60;;;;;;5082280;28;20039;-67
2021/01/08 08:19:09;;;;;;;22.15;12.13;;;2.60;69.40;;;;;;5082259;28;20045;-67
2021/01/08 08:21:35;;;;;;;20.10;11.75;;;2.80;68.80;;;;;;5084653;28;20032;-68
2021/01/08 08:24:02;;;;;;;20.90;11.70;;;2.90;69.40;;;;;;5082419;28;20054;-68
2021/01/08 08:26:28;;;;;;;22.27;12.93;;;2.90;68.00;;;;;;5065930;28;20290;-67
2021/01/08 08:29:08;;;;;;;20.17;12.10;;;2.90;67.60;;;;;;5083615;28;20036;-68
2021/01/08 08:31:38;;;;;;;22.02;12.73;;;3.10;67.90;;;;;;5082473;28;20040;-69
2021/01/08 08:34:05;;;;;;;20.83;12.13;;;3.20;67.20;;;;;;5065702;28;20028;-68
2021/01/08 08:36:31;;;;;;;21.38;12.07;;;3.30;67.20;;;;;;5067144;28;20091;-68
2021/01/08 08:38:58;;;;;;;19.33;11.32;;;3.60;66.70;;;;;;5065896;28;20036;-67
2021/01/08 08:41:24;;;;;;;20.85;12.02;;;3.60;66.30;;;;;;5049238;28;20032;-67
2021/01/08 08:44:14;;;;;;;23.25;13.02;;;3.70;65.80;;;;;;5081754;28;20109;-63
2021/01/08 08:46:39;;;;;;;19.85;11.70;;;3.70;65.70;;;;;;5081803;28;20093;-66
2021/01/08 08:49:06;;;;;;;22.00;12.45;;;3.80;65.60;;;;;;5083064;28;20316;-67
2021/01/08 08:51:32;;;;;;;20.75;12.32;;;3.90;66.10;;;;;;5083556;28;20028;-66
2021/01/08 08:53:58;;;;;;;19.52;11.55;;;4.00;65.30;;;;;;5083233;28;20354;-65
2021/01/08 08:56:23;;;;;;;19.95;11.57;;;4.00;65.60;;;;;;5048315;28;20033;-67
2021/01/08 08:58:49;;;;;;;17.83;10.82;;;4.00;65.60;;;;;;5082463;28;20035;-67
2021/01/08 09:01:15;;;;;;;18.02;10.98;;;4.00;66.10;;;;;;5082443;28;20024;-67
2021/01/08 09:03:40;;;;;;;18.63;11.55;;;4.00;65.70;;;;;;5066875;28;20044;-65
2021/01/08 09:06:09;;;;;;;20.02;11.38;;;4.00;65.80;;;;;;5081691;28;20035;-66
2021/01/08 09:08:37;;;;;;;19.60;11.35;;;4.20;65.40;;;;;;5063409;28;20094;-66
2021/01/08 09:11:10;;;;;;;18.65;10.80;;;4.40;65.50;;;;;;5065056;28;20100;-65
2021/01/08 09:14:05;;;;;;;18.63;10.52;;;4.30;64.50;;;;;;5081647;28;20040;-65
2021/01/08 09:16:59;;;;;;;19.70;11.52;;;4.40;65.00;;;;;;5081574;28;20243;-66
2021/01/08 09:19:29;;;;;;;17.55;10.48;;;4.40;65.40;;;;;;5062210;28;20032;-65
2021/01/08 09:21:55;;;;;;;17.85;10.30;;;4.30;64.60;;;;;;5083023;28;20134;-65
2021/01/08 09:24:28;;;;;;;17.67;10.27;;;4.20;65.50;;;;;;5081712;28;20036;-65
2021/01/08 09:27:00;;;;;;;17.02;9.60;;;4.20;65.60;;;;;;5081283;28;20046;-65
2021/01/08 09:29:33;;;;;;;16.63;9.82;;;4.00;65.90;;;;;;5065454;28;20032;-65
2021/01/08 09:31:59;;;;;;;16.10;9.68;;;4.10;65.90;;;;;;5064807;28;20055;-65
2021/01/08 09:34:25;;;;;;;17.67;9.73;;;4.00;65.40;;;;;;5081079;28;20082;-67
2021/01/08 09:36:52;;;;;;;15.73;9.63;;;3.90;65.60;;;;;;5082968;28;20056;-68
2021/01/08 09:39:17;;;;;;;17.58;9.63;;;4.00;66.40;;;;;;5081412;28;20104;-62
2021/01/08 09:41:43;;;;;;;15.77;9.60;;;3.90;65.50;;;;;;5081437;28;20047;-65
2021/01/08 09:44:10;;;;;;;16.42;9.57;;;3.90;66.30;;;;;;5061503;28;20123;-62
2021/01/08 09:46:58;;;;;;;16.08;8.82;;;3.90;66.40;;;;;;5064956;28;20108;-64
2021/01/08 09:49:41;;;;;;;17.38;10.07;;;4.00;66.50;;;;;;5065021;28;20036;-64
2021/01/08 09:52:07;;;;;;;15.98;10.05;;;3.90;66.70;;;;;;5080916;28;20036;-63
2021/01/08 09:54:45;;;;;;;15.73;9.48;;;3.90;66.80;;;;;;5082110;28;20201;-64
2021/01/08 09:57:23;;;;;;;13.68;8.65;;;3.90;66.40;;;;;;5081337;28;20208;-64
2021/01/08 09:59:58;;;;;;;17.30;9.98;;;4.00;66.60;;;;;;5032425;28;20087;-65
2021/01/08 10:02:40;;;;;;;16.02;9.13;;;4.10;66.70;;;;;;5033143;28;20012;-65
2021/01/08 10:05:29;;;;;;;15.50;9.68;;;4.00;66.00;;;;;;5081256;28;20043;-68
2021/01/08 10:07:56;;;;;;;16.13;9.80;;;4.00;66.30;;;;;;5080998;28;20041;-68
2021/01/08 10:10:27;;;;;;;15.13;9.20;;;3.70;65.90;;;;;;5081026;28;20033;-62
2021/01/08 10:12:58;;;;;;;16.25;9.57;;;3.80;67.40;;;;;;5082180;28;20070;-68
2021/01/08 10:15:37;;;;;;;17.08;9.30;;;3.90;66.50;;;;;;5081082;28;20035;-63
2021/01/08 10:18:28;;;;;;;15.27;8.85;;;4.00;66.50;;;;;;5080913;28;20056;-63
2021/01/08 10:20:55;;;;;;;15.13;8.88;;;3.90;65.70;;;;;;5081862;28;20024;-70
2021/01/08 10:23:21;;;;;;;14.93;8.93;;;3.90;65.80;;;;;;5069934;28;20028;-62
2021/01/08 10:25:47;;;;;;;14.23;8.82;;;3.90;65.00;;;;;;5085105;28;20044;-63
2021/01/08 10:28:21;;;;;;;16.42;9.20;;;3.90;64.70;;;;;;5084359;28;20056;-64
2021/01/08 10:30:51;;;;;;;17.60;10.00;;;4.00;65.10;;;;;;5085917;28;20060;-66
2021/01/08 10:33:17;;;;;;;13.40;8.43;;;4.20;65.10;;;;;;5068564;28;20090;-64
2021/01/08 10:35:47;;;;;;;13.10;8.07;;;4.20;63.70;;;;;;5069752;28;20036;-63
2021/01/08 10:38:12;;;;;;;13.80;8.23;;;4.20;64.20;;;;;;5068413;28;20059;-63
2021/01/08 10:40:38;;;;;;;13.82;8.18;;;4.20;62.70;;;;;;5085802;28;20037;-64
2021/01/08 10:43:04;;;;;;;15.23;8.25;;;4.40;63.50;;;;;;5085261;28;20053;-61
2021/01/08 10:45:29;;;;;;;14.13;8.35;;;4.40;63.40;;;;;;5085440;28;20111;-63
2021/01/08 10:47:55;;;;;;;12.57;7.80;;;4.50;63.20;;;;;;5085095;28;20041;-63
2021/01/08 10:50:20;;;;;;;16.15;9.00;;;4.60;63.10;;;;;;5086126;28;20039;-64
2021/01/08 10:52:46;;;;;;;14.07;8.75;;;4.60;62.90;;;;;;5084128;28;20043;-61
2021/01/08 10:55:11;;;;;;;13.65;8.02;;;4.60;62.40;;;;;;5085161;28;20235;-67
2021/01/08 10:57:37;;;;;;;13.13;7.85;;;4.80;61.40;;;;;;5067342;28;20032;-66
2021/01/08 11:00:04;;;;;;;13.18;7.82;;;5.20;60.90;;;;;;5084005;28;20067;-61
2021/01/08 11:02:30;;;;;;;12.32;7.70;;;5.40;60.70;;;;;;5086574;28;20033;-62
2021/01/08 11:04:55;;;;;;;13.60;8.15;;;5.50;58.20;;;;;;5085414;28;20036;-63
2021/01/08 11:07:21;;;;;;;14.35;7.70;;;5.50;59.10;;;;;;5084967;28;20208;-62
2021/01/08 11:09:47;;;;;;;12.68;7.85;;;5.70;59.90;;;;;;5084823;28;20056;-63
2021/01/08 11:12:12;;;;;;;13.75;8.35;;;5.80;59.20;;;;;;5084922;28;20029;-62
2021/01/08 11:14:38;;;;;;;11.77;7.60;;;5.90;58.30;;;;;;5086468;28;20033;-61
2021/01/08 11:17:04;;;;;;;11.77;7.50;;;6.00;57.50;;;;;;5085305;28;20041;-62
2021/01/08 11:19:29;;;;;;;13.27;8.18;;;6.00;56.60;;;;;;5084655;28;20090;-61
2021/01/08 11:21:55;;;;;;;11.50;7.85;;;6.10;56.60;;;;;;5083492;28;20043;-61
2021/01/08 11:24:20;;;;;;;13.27;8.05;;;6.10;55.30;;;;;;5084572;28;20039;-62
2021/01/08 11:26:46;;;;;;;12.20;8.18;;;6.30;55.80;;;;;;5068417;28;20071;-63
2021/01/08 11:29:12;;;;;;;12.48;7.78;;;6.50;55.80;;;;;;5084647;28;20043;-63
2021/01/08 11:31:38;;;;;;;12.25;7.63;;;6.60;53.80;;;;;;5084649;28;20246;-61
2021/01/08 11:34:04;;;;;;;11.35;7.38;;;6.60;54.40;;;;;;5067218;28;20316;-62
2021/01/08 11:36:29;;;;;;;12.90;8.00;;;6.60;54.30;;;;;;5083258;28;20357;-61
2021/01/08 11:38:55;;;;;;;14.38;7.43;;;6.80;54.30;;;;;;5084374;28;20016;-60
2021/01/08 11:41:21;;;;;;;12.65;7.68;;;7.30;53.00;;;;;;5086227;28;20087;-61
2021/01/08 11:43:47;;;;;;;12.38;7.50;;;7.50;50.90;;;;;;5084146;28;20064;-65
2021/01/08 11:46:19;;;;;;;12.23;7.40;;;7.30;51.00;;;;;;5066358;28;20029;-62
2021/01/08 11:48:45;;;;;;;11.10;7.20;;;7.50;52.30;;;;;;5083978;28;20053;-63
2021/01/08 11:51:14;;;;;;;10.18;6.80;;;7.60;51.70;;;;;;5082817;28;20051;-63
2021/01/08 11:53:43;;;;;;;10.45;6.90;;;7.50;51.30;;;;;;5068894;28;20316;-63
2021/01/08 11:56:09;;;;;;;10.85;6.90;;;7.50;51.30;;;;;;5083799;28;20032;-62
2021/01/08 11:58:36;;;;;;;11.10;7.03;;;7.40;51.60;;;;;;5084037;28;20091;-64
2021/01/08 12:01:02;;;;;;;10.88;7.00;;;7.30;51.50;;;;;;5082618;28;20036;-65
2021/01/08 12:03:27;;;;;;;9.60;6.60;;;7.20;50.80;;;;;;5083800;28;20028;-62
2021/01/08 12:05:53;;;;;;;9.38;6.13;;;7.10;51.80;;;;;;5083781;28;20028;-65
2021/01/08 12:08:19;;;;;;;13.70;6.97;;;7.10;51.60;;;;;;5085887;28;20220;-65
2021/01/08 12:10:45;;;;;;;11.07;6.63;;;6.90;52.00;;;;;;5082558;28;20263;-64
2021/01/08 12:13:10;;;;;;;11.18;7.20;;;6.80;53.60;;;;;;5065781;28;20092;-65
2021/01/08 12:15:36;;;;;;;10.85;6.88;;;6.50;52.70;;;;;;5082321;28;20033;-64
2021/01/08 12:18:01;;;;;;;11.32;7.03;;;6.30;52.50;;;;;;5049124;28;20055;-65
2021/01/08 12:20:27;;;;;;;13.32;7.90;;;6.30;52.30;;;;;;5084154;28;20021;-63
2021/01/08 12:22:52;;;;;;;11.45;7.25;;;6.10;53.30;;;;;;5083882;28;20037;-62
2021/01/08 12:25:18;;;;;;;11.70;7.22;;;6.00;53.80;;;;;;5066118;28;20378;-62
2021/01/08 12:27:44;;;;;;;10.70;6.80;;;6.00;53.90;;;;;;5065007;28;20085;-63
2021/01/08 12:30:10;;;;;;;11.50;7.10;;;5.90;54.10;;;;;;5082129;28;20070;-63
2021/01/08 12:32:36;;;;;;;10.30;6.72;;;5.80;53.50;;;;;;5067171;28;20063;-62
2021/01/08 12:35:02;;;;;;;10.95;6.45;;;5.80;54.80;;;;;;5065853;28;20091;-62
2021/01/08 12:37:28;;;;;;;11.93;6.85;;;5.70;54.10;;;;;;5083165;28;20047;-61
2021/01/08 12:39:53;;;;;;;12.45;7.07;;;5.80;55.50;;;;;;5082024;28;20032;-61
2021/01/08 12:42:19;;;;;;;11.00;6.78;;;5.40;53.20;;;;;;5083332;28;20059;-62